sensor_id;sensor_type;location;lat;lon;timestamp;temperature;humidity
38277;DHT22;24080;-33.892;151.134;2022-10-16T00:01:44;20.90;59.50
38277;DHT22;24080;-33.892;151.134;2022-10-16T00:04:12;20.90;59.40
38277;DHT22;24080;-33.892;151.134;2022-10-16T00:06:41;21.00;59.30
38277;DHT22;24080;-33.892;151.134;2022-10-16T00:09:09;21.00;59.50
38277;DHT22;24080;-33.892;151.134;2022-10-16T00:11:39;21.00;59.80
38277;DHT22;24080;-33.892;151.134;2022-10-16T00:14:11;21.00;59.80
38277;DHT22;24080;-33.892;151.134;2022-10-16T00:16:40;21.00;59.90
38277;DHT22;24080;-33.892;151.134;2022-10-16T00:19:10;21.10;60.10
38277;DHT22;24080;-33.892;151.134;2022-10-16T00:21:40;21.00;60.10
38277;DHT22;24080;-33.892;151.134;2022-10-16T00:24:09;21.00;59.70
38277;DHT22;24080;-33.892;151.134;2022-10-16T00:26:39;21.00;59.90
38277;DHT22;24080;-33.892;151.134;2022-10-16T00:29:07;21.00;59.60
38277;DHT22;24080;-33.892;151.134;2022-10-16T00:31:36;21.00;59.70
38277;DHT22;24080;-33.892;151.134;2022-10-16T00:34:05;21.00;59.80
38277;DHT22;24080;-33.892;151.134;2022-10-16T00:36:33;21.10;59.60
38277;DHT22;24080;-33.892;151.134;2022-10-16T00:39:01;21.10;59.80
38277;DHT22;24080;-33.892;151.134;2022-10-16T00:41:30;21.10;60.00
38277;DHT22;24080;-33.892;151.134;2022-10-16T00:44:00;21.10;60.20
38277;DHT22;24080;-33.892;151.134;2022-10-16T00:46:37;21.10;60.30
38277;DHT22;24080;-33.892;151.134;2022-10-16T00:51:37;21.10;61.10
38277;DHT22;24080;-33.892;151.134;2022-10-16T00:54:21;21.10;61.20
38277;DHT22;24080;-33.892;151.134;2022-10-16T00:56:51;21.10;61.30
38277;DHT22;24080;-33.892;151.134;2022-10-16T01:01:49;21.10;61.80
38277;DHT22;24080;-33.892;151.134;2022-10-16T01:04:18;21.10;62.10
38277;DHT22;24080;-33.892;151.134;2022-10-16T01:09:53;21.10;62.90
38277;DHT22;24080;-33.892;151.134;2022-10-16T01:15:17;21.20;63.50
38277;DHT22;24080;-33.892;151.134;2022-10-16T01:18:03;21.20;63.60
38277;DHT22;24080;-33.892;151.134;2022-10-16T01:25:56;21.20;63.80
38277;DHT22;24080;-33.892;151.134;2022-10-16T01:29:16;21.20;64.00
38277;DHT22;24080;-33.892;151.134;2022-10-16T01:31:27;21.20;64.20
38277;DHT22;24080;-33.892;151.134;2022-10-16T01:34:15;21.20;64.30
38277;DHT22;24080;-33.892;151.134;2022-10-16T01:37:07;21.20;64.40
38277;DHT22;24080;-33.892;151.134;2022-10-16T01:39:39;21.20;64.40
38277;DHT22;24080;-33.892;151.134;2022-10-16T01:42:15;21.20;64.70
38277;DHT22;24080;-33.892;151.134;2022-10-16T01:44:47;21.20;64.80
38277;DHT22;24080;-33.892;151.134;2022-10-16T01:47:18;21.20;64.70
38277;DHT22;24080;-33.892;151.134;2022-10-16T01:49:49;21.20;64.70
38277;DHT22;24080;-33.892;151.134;2022-10-16T01:52:21;21.20;64.50
38277;DHT22;24080;-33.892;151.134;2022-10-16T01:54:53;21.20;64.50
38277;DHT22;24080;-33.892;151.134;2022-10-16T01:57:22;21.20;64.40
38277;DHT22;24080;-33.892;151.134;2022-10-16T01:59:56;21.20;64.10
38277;DHT22;24080;-33.892;151.134;2022-10-16T02:02:28;21.20;64.40
38277;DHT22;24080;-33.892;151.134;2022-10-16T02:04:58;21.20;64.10
38277;DHT22;24080;-33.892;151.134;2022-10-16T02:07:29;21.20;63.90
38277;DHT22;24080;-33.892;151.134;2022-10-16T02:09:57;21.20;64.10
38277;DHT22;24080;-33.892;151.134;2022-10-16T02:12:31;21.20;64.20
38277;DHT22;24080;-33.892;151.134;2022-10-16T02:15:01;21.20;64.20
38277;DHT22;24080;-33.892;151.134;2022-10-16T02:17:29;21.30;64.30
38277;DHT22;24080;-33.892;151.134;2022-10-16T02:19:58;21.30;64.40
38277;DHT22;24080;-33.892;151.134;2022-10-16T02:27:57;21.30;64.70
38277;DHT22;24080;-33.892;151.134;2022-10-16T02:30:38;21.30;64.90
38277;DHT22;24080;-33.892;151.134;2022-10-16T02:33:11;21.30;65.20
38277;DHT22;24080;-33.892;151.134;2022-10-16T02:35:45;21.30;65.20
38277;DHT22;24080;-33.892;151.134;2022-10-16T02:38:15;21.30;65.50
38277;DHT22;24080;-33.892;151.134;2022-10-16T02:40:44;21.30;66.30
38277;DHT22;24080;-33.892;151.134;2022-10-16T02:43:13;21.30;65.80
38277;DHT22;24080;-33.892;151.134;2022-10-16T02:45:41;21.30;65.90
38277;DHT22;24080;-33.892;151.134;2022-10-16T02:48:09;21.30;66.10
38277;DHT22;24080;-33.892;151.134;2022-10-16T02:50:37;21.30;66.10
38277;DHT22;24080;-33.892;151.134;2022-10-16T02:53:06;21.30;66.20
38277;DHT22;24080;-33.892;151.134;2022-10-16T02:55:34;21.30;66.20
38277;DHT22;24080;-33.892;151.134;2022-10-16T02:58:03;21.40;66.40
38277;DHT22;24080;-33.892;151.134;2022-10-16T03:00:31;21.40;66.30
38277;DHT22;24080;-33.892;151.134;2022-10-16T03:03:00;21.40;66.50
38277;DHT22;24080;-33.892;151.134;2022-10-16T03:05:28;21.40;66.40
38277;DHT22;24080;-33.892;151.134;2022-10-16T03:07:56;21.40;66.40
38277;DHT22;24080;-33.892;151.134;2022-10-16T03:10:27;21.40;66.60
38277;DHT22;24080;-33.892;151.134;2022-10-16T03:12:56;21.40;66.80
38277;DHT22;24080;-33.892;151.134;2022-10-16T03:15:24;21.40;66.50
38277;DHT22;24080;-33.892;151.134;2022-10-16T03:17:53;21.40;66.30
38277;DHT22;24080;-33.892;151.134;2022-10-16T03:20:21;21.40;66.40
38277;DHT22;24080;-33.892;151.134;2022-10-16T03:22:49;21.40;66.40
38277;DHT22;24080;-33.892;151.134;2022-10-16T03:25:18;21.40;66.30
38277;DHT22;24080;-33.892;151.134;2022-10-16T03:27:46;21.40;66.30
38277;DHT22;24080;-33.892;151.134;2022-10-16T03:30:14;21.40;66.30
38277;DHT22;24080;-33.892;151.134;2022-10-16T03:32:44;21.50;66.40
38277;DHT22;24080;-33.892;151.134;2022-10-16T03:35:13;21.50;66.30
38277;DHT22;24080;-33.892;151.134;2022-10-16T03:37:41;21.50;66.30
38277;DHT22;24080;-33.892;151.134;2022-10-16T03:40:10;21.40;66.30
38277;DHT22;24080;-33.892;151.134;2022-10-16T03:42:38;21.40;66.30
38277;DHT22;24080;-33.892;151.134;2022-10-16T03:45:07;21.40;66.30
38277;DHT22;24080;-33.892;151.134;2022-10-16T03:47:35;21.40;66.40
38277;DHT22;24080;-33.892;151.134;2022-10-16T03:50:04;21.40;66.60
38277;DHT22;24080;-33.892;151.134;2022-10-16T03:52:33;21.40;66.70
38277;DHT22;24080;-33.892;151.134;2022-10-16T03:55:01;21.40;66.90
38277;DHT22;24080;-33.892;151.134;2022-10-16T03:57:29;21.40;67.00
38277;DHT22;24080;-33.892;151.134;2022-10-16T03:59:58;21.40;67.30
38277;DHT22;24080;-33.892;151.134;2022-10-16T04:02:26;21.40;67.30
38277;DHT22;24080;-33.892;151.134;2022-10-16T04:04:54;21.40;67.20
38277;DHT22;24080;-33.892;151.134;2022-10-16T04:07:22;21.40;67.30
38277;DHT22;24080;-33.892;151.134;2022-10-16T04:09:50;21.40;67.40
38277;DHT22;24080;-33.892;151.134;2022-10-16T04:12:19;21.40;68.00
38277;DHT22;24080;-33.892;151.134;2022-10-16T04:14:47;21.40;67.40
38277;DHT22;24080;-33.892;151.134;2022-10-16T04:17:15;21.40;67.30
38277;DHT22;24080;-33.892;151.134;2022-10-16T04:19:44;21.40;67.50
38277;DHT22;24080;-33.892;151.134;2022-10-16T04:22:12;21.50;67.50
38277;DHT22;24080;-33.892;151.134;2022-10-16T04:24:41;21.50;67.80
38277;DHT22;24080;-33.892;151.134;2022-10-16T04:27:09;21.50;67.70
38277;DHT22;24080;-33.892;151.134;2022-10-16T04:29:37;21.50;67.80
38277;DHT22;24080;-33.892;151.134;2022-10-16T04:32:07;21.50;67.90
38277;DHT22;24080;-33.892;151.134;2022-10-16T04:34:36;21.50;68.00
38277;DHT22;24080;-33.892;151.134;2022-10-16T04:37:06;21.50;68.20
38277;DHT22;24080;-33.892;151.134;2022-10-16T04:39:34;21.50;68.40
38277;DHT22;24080;-33.892;151.134;2022-10-16T04:42:03;21.50;68.30
38277;DHT22;24080;-33.892;151.134;2022-10-16T04:44:31;21.50;68.20
38277;DHT22;24080;-33.892;151.134;2022-10-16T04:47:00;21.50;68.30
38277;DHT22;24080;-33.892;151.134;2022-10-16T04:49:28;21.50;68.30
38277;DHT22;24080;-33.892;151.134;2022-10-16T04:51:57;21.50;68.40
38277;DHT22;24080;-33.892;151.134;2022-10-16T04:54:24;21.50;68.40
38277;DHT22;24080;-33.892;151.134;2022-10-16T04:56:53;21.50;68.50
38277;DHT22;24080;-33.892;151.134;2022-10-16T04:59:21;21.50;68.60
38277;DHT22;24080;-33.892;151.134;2022-10-16T05:01:50;21.50;68.60
38277;DHT22;24080;-33.892;151.134;2022-10-16T05:04:18;21.50;68.60
38277;DHT22;24080;-33.892;151.134;2022-10-16T05:06:48;21.50;68.60
38277;DHT22;24080;-33.892;151.134;2022-10-16T05:09:16;21.50;68.60
38277;DHT22;24080;-33.892;151.134;2022-10-16T05:11:44;21.50;68.60
38277;DHT22;24080;-33.892;151.134;2022-10-16T05:14:13;21.50;68.60
38277;DHT22;24080;-33.892;151.134;2022-10-16T05:16:41;21.50;68.60
38277;DHT22;24080;-33.892;151.134;2022-10-16T05:19:10;21.50;68.60
38277;DHT22;24080;-33.892;151.134;2022-10-16T05:21:38;21.50;68.60
38277;DHT22;24080;-33.892;151.134;2022-10-16T05:24:07;21.50;68.80
38277;DHT22;24080;-33.892;151.134;2022-10-16T05:26:36;21.60;69.10
38277;DHT22;24080;-33.892;151.134;2022-10-16T05:29:04;21.50;69.20
38277;DHT22;24080;-33.892;151.134;2022-10-16T05:31:33;21.60;69.20
38277;DHT22;24080;-33.892;151.134;2022-10-16T05:34:01;21.50;69.10
38277;DHT22;24080;-33.892;151.134;2022-10-16T05:36:30;21.60;69.10
38277;DHT22;24080;-33.892;151.134;2022-10-16T05:38:58;21.60;69.10
38277;DHT22;24080;-33.892;151.134;2022-10-16T05:41:26;21.60;69.20
38277;DHT22;24080;-33.892;151.134;2022-10-16T05:43:54;21.50;69.00
38277;DHT22;24080;-33.892;151.134;2022-10-16T05:46:22;21.50;69.20
38277;DHT22;24080;-33.892;151.134;2022-10-16T05:48:52;21.50;69.30
38277;DHT22;24080;-33.892;151.134;2022-10-16T05:51:20;21.50;69.60
38277;DHT22;24080;-33.892;151.134;2022-10-16T05:53:48;21.50;69.70
38277;DHT22;24080;-33.892;151.134;2022-10-16T05:56:17;21.50;69.80
38277;DHT22;24080;-33.892;151.134;2022-10-16T05:58:45;21.50;69.80
38277;DHT22;24080;-33.892;151.134;2022-10-16T06:01:16;21.50;69.70
38277;DHT22;24080;-33.892;151.134;2022-10-16T06:03:45;21.50;69.90
38277;DHT22;24080;-33.892;151.134;2022-10-16T06:06:15;21.50;69.80
38277;DHT22;24080;-33.892;151.134;2022-10-16T06:08:44;21.50;69.90
38277;DHT22;24080;-33.892;151.134;2022-10-16T06:11:18;21.50;69.90
38277;DHT22;24080;-33.892;151.134;2022-10-16T06:13:54;21.50;69.90
38277;DHT22;24080;-33.892;151.134;2022-10-16T06:16:25;21.50;70.10
38277;DHT22;24080;-33.892;151.134;2022-10-16T06:18:55;21.50;70.20
38277;DHT22;24080;-33.892;151.134;2022-10-16T06:21:25;21.50;70.50
38277;DHT22;24080;-33.892;151.134;2022-10-16T06:23:54;21.50;70.60
38277;DHT22;24080;-33.892;151.134;2022-10-16T06:26:28;21.50;70.70
38277;DHT22;24080;-33.892;151.134;2022-10-16T06:28:58;21.50;70.70
38277;DHT22;24080;-33.892;151.134;2022-10-16T06:31:27;21.50;70.70
38277;DHT22;24080;-33.892;151.134;2022-10-16T06:33:58;21.60;70.90
38277;DHT22;24080;-33.892;151.134;2022-10-16T06:36:27;21.60;70.70
38277;DHT22;24080;-33.892;151.134;2022-10-16T06:38:56;21.60;71.30
38277;DHT22;24080;-33.892;151.134;2022-10-16T06:41:24;21.60;70.70
38277;DHT22;24080;-33.892;151.134;2022-10-16T06:43:52;21.60;70.60
38277;DHT22;24080;-33.892;151.134;2022-10-16T06:46:23;21.60;70.60
38277;DHT22;24080;-33.892;151.134;2022-10-16T06:48:53;21.60;70.50
38277;DHT22;24080;-33.892;151.134;2022-10-16T06:51:23;21.60;70.60
38277;DHT22;24080;-33.892;151.134;2022-10-16T06:53:53;21.50;70.40
38277;DHT22;24080;-33.892;151.134;2022-10-16T06:56:26;21.50;70.40
38277;DHT22;24080;-33.892;151.134;2022-10-16T06:58:55;21.50;70.40
38277;DHT22;24080;-33.892;151.134;2022-10-16T07:01:23;21.50;70.40
38277;DHT22;24080;-33.892;151.134;2022-10-16T07:03:52;21.50;70.40
38277;DHT22;24080;-33.892;151.134;2022-10-16T07:06:22;21.50;70.40
38277;DHT22;24080;-33.892;151.134;2022-10-16T07:08:51;21.50;70.30
38277;DHT22;24080;-33.892;151.134;2022-10-16T07:11:21;21.50;70.40
38277;DHT22;24080;-33.892;151.134;2022-10-16T07:13:51;21.50;70.50
38277;DHT22;24080;-33.892;151.134;2022-10-16T07:16:23;21.50;70.70
38277;DHT22;24080;-33.892;151.134;2022-10-16T07:18:53;21.50;71.00
38277;DHT22;24080;-33.892;151.134;2022-10-16T07:21:28;21.50;71.10
38277;DHT22;24080;-33.892;151.134;2022-10-16T07:23:59;21.50;71.20
38277;DHT22;24080;-33.892;151.134;2022-10-16T07:26:33;21.50;71.40
38277;DHT22;24080;-33.892;151.134;2022-10-16T07:29:02;21.40;71.20
38277;DHT22;24080;-33.892;151.134;2022-10-16T07:31:30;21.40;71.30
38277;DHT22;24080;-33.892;151.134;2022-10-16T07:34:00;21.40;72.00
38277;DHT22;24080;-33.892;151.134;2022-10-16T07:36:28;21.40;71.40
38277;DHT22;24080;-33.892;151.134;2022-10-16T07:38:57;21.40;71.60
38277;DHT22;24080;-33.892;151.134;2022-10-16T07:41:25;21.40;71.60
38277;DHT22;24080;-33.892;151.134;2022-10-16T07:43:54;21.40;71.70
38277;DHT22;24080;-33.892;151.134;2022-10-16T07:46:25;21.40;71.80
38277;DHT22;24080;-33.892;151.134;2022-10-16T07:48:55;21.40;71.80
38277;DHT22;24080;-33.892;151.134;2022-10-16T07:51:25;21.40;71.60
38277;DHT22;24080;-33.892;151.134;2022-10-16T07:53:54;21.30;71.60
38277;DHT22;24080;-33.892;151.134;2022-10-16T07:56:23;21.30;71.50
38277;DHT22;24080;-33.892;151.134;2022-10-16T07:58:52;21.30;71.50
38277;DHT22;24080;-33.892;151.134;2022-10-16T08:01:20;21.30;71.70
38277;DHT22;24080;-33.892;151.134;2022-10-16T08:03:51;21.20;71.30
38277;DHT22;24080;-33.892;151.134;2022-10-16T08:06:20;21.20;72.00
38277;DHT22;24080;-33.892;151.134;2022-10-16T08:08:49;21.20;71.50
38277;DHT22;24080;-33.892;151.134;2022-10-16T08:11:17;21.10;71.60
38277;DHT22;24080;-33.892;151.134;2022-10-16T08:13:45;21.10;71.70
38277;DHT22;24080;-33.892;151.134;2022-10-16T08:16:14;21.10;71.80
38277;DHT22;24080;-33.892;151.134;2022-10-16T08:18:42;21.10;72.10
38277;DHT22;24080;-33.892;151.134;2022-10-16T08:21:20;21.10;72.10
38277;DHT22;24080;-33.892;151.134;2022-10-16T08:23:50;21.10;72.40
38277;DHT22;24080;-33.892;151.134;2022-10-16T08:26:18;21.10;72.60
38277;DHT22;24080;-33.892;151.134;2022-10-16T08:28:50;21.20;72.70
38277;DHT22;24080;-33.892;151.134;2022-10-16T08:31:19;21.20;72.50
38277;DHT22;24080;-33.892;151.134;2022-10-16T08:33:47;21.20;72.20
38277;DHT22;24080;-33.892;151.134;2022-10-16T08:36:16;21.20;72.00
38277;DHT22;24080;-33.892;151.134;2022-10-16T08:38:48;21.20;71.90
38277;DHT22;24080;-33.892;151.134;2022-10-16T08:47:02;21.20;71.60
38277;DHT22;24080;-33.892;151.134;2022-10-16T08:49:32;21.20;71.50
38277;DHT22;24080;-33.892;151.134;2022-10-16T08:52:00;21.20;71.30
38277;DHT22;24080;-33.892;151.134;2022-10-16T08:54:49;21.20;71.10
38277;DHT22;24080;-33.892;151.134;2022-10-16T08:57:21;21.20;71.00
38277;DHT22;24080;-33.892;151.134;2022-10-16T08:59:51;21.20;70.90
38277;DHT22;24080;-33.892;151.134;2022-10-16T09:02:37;21.10;70.90
38277;DHT22;24080;-33.892;151.134;2022-10-16T09:22:46;21.00;71.30
38277;DHT22;24080;-33.892;151.134;2022-10-16T09:25:21;21.10;71.20
38277;DHT22;24080;-33.892;151.134;2022-10-16T09:27:53;21.00;71.10
38277;DHT22;24080;-33.892;151.134;2022-10-16T09:30:29;21.00;71.00
38277;DHT22;24080;-33.892;151.134;2022-10-16T09:32:58;21.00;70.70
38277;DHT22;24080;-33.892;151.134;2022-10-16T09:35:53;21.10;70.50
38277;DHT22;24080;-33.892;151.134;2022-10-16T09:38:29;21.10;70.40
38277;DHT22;24080;-33.892;151.134;2022-10-16T09:41:02;21.10;70.20
38277;DHT22;24080;-33.892;151.134;2022-10-16T09:43:42;21.10;70.20
38277;DHT22;24080;-33.892;151.134;2022-10-16T09:46:41;21.10;70.60
38277;DHT22;24080;-33.892;151.134;2022-10-16T09:49:24;21.10;70.90
38277;DHT22;24080;-33.892;151.134;2022-10-16T09:52:11;21.10;71.50
38277;DHT22;24080;-33.892;151.134;2022-10-16T09:55:21;21.10;72.70
38277;DHT22;24080;-33.892;151.134;2022-10-16T09:57:52;21.10;74.80
38277;DHT22;24080;-33.892;151.134;2022-10-16T10:00:23;21.10;74.80
38277;DHT22;24080;-33.892;151.134;2022-10-16T10:02:53;21.10;74.30
38277;DHT22;24080;-33.892;151.134;2022-10-16T10:05:25;21.10;75.30
38277;DHT22;24080;-33.892;151.134;2022-10-16T10:07:58;21.10;75.70
38277;DHT22;24080;-33.892;151.134;2022-10-16T10:10:29;21.10;76.10
38277;DHT22;24080;-33.892;151.134;2022-10-16T10:12:59;21.10;76.60
38277;DHT22;24080;-33.892;151.134;2022-10-16T10:15:33;21.00;77.50
38277;DHT22;24080;-33.892;151.134;2022-10-16T10:18:14;21.00;77.30
38277;DHT22;24080;-33.892;151.134;2022-10-16T10:20:44;21.00;77.60
38277;DHT22;24080;-33.892;151.134;2022-10-16T10:23:26;21.00;77.00
38277;DHT22;24080;-33.892;151.134;2022-10-16T10:26:18;21.00;77.90
38277;DHT22;24080;-33.892;151.134;2022-10-16T10:29:22;21.00;77.90
38277;DHT22;24080;-33.892;151.134;2022-10-16T10:32:53;21.00;77.60
38277;DHT22;24080;-33.892;151.134;2022-10-16T10:35:04;21.00;78.00
38277;DHT22;24080;-33.892;151.134;2022-10-16T10:38:00;21.00;77.70
38277;DHT22;24080;-33.892;151.134;2022-10-16T10:40:43;21.00;77.90
38277;DHT22;24080;-33.892;151.134;2022-10-16T10:46:13;20.90;78.10
38277;DHT22;24080;-33.892;151.134;2022-10-16T10:49:06;20.90;78.00
38277;DHT22;24080;-33.892;151.134;2022-10-16T11:02:41;20.90;79.00
38277;DHT22;24080;-33.892;151.134;2022-10-16T11:08:26;21.00;80.60
38277;DHT22;24080;-33.892;151.134;2022-10-16T11:16:37;21.00;81.40
38277;DHT22;24080;-33.892;151.134;2022-10-16T11:22:22;21.00;82.00
38277;DHT22;24080;-33.892;151.134;2022-10-16T11:24:59;21.00;81.40
38277;DHT22;24080;-33.892;151.134;2022-10-16T11:27:49;21.00;81.80
38277;DHT22;24080;-33.892;151.134;2022-10-16T11:30:30;21.00;82.40
38277;DHT22;24080;-33.892;151.134;2022-10-16T11:49:37;21.00;82.00
38277;DHT22;24080;-33.892;151.134;2022-10-16T11:54:59;20.90;82.30
38277;DHT22;24080;-33.892;151.134;2022-10-16T11:57:57;21.00;82.40
38277;DHT22;24080;-33.892;151.134;2022-10-16T12:00:24;20.90;82.00
38277;DHT22;24080;-33.892;151.134;2022-10-16T12:03:00;20.90;82.30
38277;DHT22;24080;-33.892;151.134;2022-10-16T12:08:21;20.90;82.30
38277;DHT22;24080;-33.892;151.134;2022-10-16T12:10:50;20.90;82.30
38277;DHT22;24080;-33.892;151.134;2022-10-16T12:13:32;20.90;83.00
38277;DHT22;24080;-33.892;151.134;2022-10-16T12:16:21;20.90;82.50
38277;DHT22;24080;-33.892;151.134;2022-10-16T12:19:02;20.90;82.40
38277;DHT22;24080;-33.892;151.134;2022-10-16T12:21:31;20.90;82.40
38277;DHT22;24080;-33.892;151.134;2022-10-16T12:24:01;20.90;82.40
38277;DHT22;24080;-33.892;151.134;2022-10-16T12:26:36;20.80;82.10
38277;DHT22;24080;-33.892;151.134;2022-10-16T12:31:55;20.90;82.30
38277;DHT22;24080;-33.892;151.134;2022-10-16T12:34:44;20.90;82.00
38277;DHT22;24080;-33.892;151.134;2022-10-16T12:39:50;20.80;81.90
38277;DHT22;24080;-33.892;151.134;2022-10-16T12:44:58;20.90;82.00
38277;DHT22;24080;-33.892;151.134;2022-10-16T12:50:00;20.80;81.70
38277;DHT22;24080;-33.892;151.134;2022-10-16T12:52:36;20.80;81.80
38277;DHT22;24080;-33.892;151.134;2022-10-16T12:55:12;20.80;81.60
38277;DHT22;24080;-33.892;151.134;2022-10-16T12:58:07;20.80;81.70
38277;DHT22;24080;-33.892;151.134;2022-10-16T13:00:59;20.80;81.90
38277;DHT22;24080;-33.892;151.134;2022-10-16T13:03:43;20.80;81.70
38277;DHT22;24080;-33.892;151.134;2022-10-16T13:12:15;20.80;81.80
38277;DHT22;24080;-33.892;151.134;2022-10-16T13:20:29;20.70;82.00
38277;DHT22;24080;-33.892;151.134;2022-10-16T13:23:13;20.70;82.00
38277;DHT22;24080;-33.892;151.134;2022-10-16T13:28:42;20.70;82.00
38277;DHT22;24080;-33.892;151.134;2022-10-16T13:31:19;20.70;81.90
38277;DHT22;24080;-33.892;151.134;2022-10-16T13:33:52;20.70;81.90
38277;DHT22;24080;-33.892;151.134;2022-10-16T13:36:25;20.70;81.80
38277;DHT22;24080;-33.892;151.134;2022-10-16T13:39:13;20.70;81.90
38277;DHT22;24080;-33.892;151.134;2022-10-16T13:41:42;20.70;81.80
38277;DHT22;24080;-33.892;151.134;2022-10-16T13:44:20;20.70;81.70
38277;DHT22;24080;-33.892;151.134;2022-10-16T13:47:00;20.70;81.60
38277;DHT22;24080;-33.892;151.134;2022-10-16T13:49:28;20.70;81.70
38277;DHT22;24080;-33.892;151.134;2022-10-16T13:51:58;20.70;81.70
38277;DHT22;24080;-33.892;151.134;2022-10-16T13:54:28;20.70;81.70
38277;DHT22;24080;-33.892;151.134;2022-10-16T13:57:04;20.80;81.70
38277;DHT22;24080;-33.892;151.134;2022-10-16T13:59:37;20.80;81.70
38277;DHT22;24080;-33.892;151.134;2022-10-16T14:04:54;20.80;81.60
38277;DHT22;24080;-33.892;151.134;2022-10-16T14:07:28;20.80;81.80
38277;DHT22;24080;-33.892;151.134;2022-10-16T14:10:20;20.80;81.50
38277;DHT22;24080;-33.892;151.134;2022-10-16T14:13:03;20.80;81.40
38277;DHT22;24080;-33.892;151.134;2022-10-16T14:15:34;20.80;81.60
38277;DHT22;24080;-33.892;151.134;2022-10-16T14:18:04;20.70;81.50
38277;DHT22;24080;-33.892;151.134;2022-10-16T14:20:33;20.70;81.50
38277;DHT22;24080;-33.892;151.134;2022-10-16T14:23:16;20.70;81.50
38277;DHT22;24080;-33.892;151.134;2022-10-16T14:25:47;20.70;81.50
38277;DHT22;24080;-33.892;151.134;2022-10-16T14:28:23;20.70;81.40
38277;DHT22;24080;-33.892;151.134;2022-10-16T14:31:02;20.70;81.40
38277;DHT22;24080;-33.892;151.134;2022-10-16T14:33:32;20.70;81.20
38277;DHT22;24080;-33.892;151.134;2022-10-16T14:36:11;20.70;81.10
38277;DHT22;24080;-33.892;151.134;2022-10-16T14:38:42;20.80;81.30
38277;DHT22;24080;-33.892;151.134;2022-10-16T14:41:11;20.70;81.30
38277;DHT22;24080;-33.892;151.134;2022-10-16T14:43:43;20.80;81.30
38277;DHT22;24080;-33.892;151.134;2022-10-16T14:46:18;20.80;81.30
38277;DHT22;24080;-33.892;151.134;2022-10-16T14:48:49;20.80;81.40
38277;DHT22;24080;-33.892;151.134;2022-10-16T14:51:19;20.70;81.30
38277;DHT22;24080;-33.892;151.134;2022-10-16T14:53:49;20.80;81.30
38277;DHT22;24080;-33.892;151.134;2022-10-16T14:56:30;20.70;81.10
38277;DHT22;24080;-33.892;151.134;2022-10-16T14:59:12;20.70;81.30
38277;DHT22;24080;-33.892;151.134;2022-10-16T15:01:43;20.70;81.30
38277;DHT22;24080;-33.892;151.134;2022-10-16T15:04:13;20.70;81.50
38277;DHT22;24080;-33.892;151.134;2022-10-16T15:06:43;20.70;81.40
38277;DHT22;24080;-33.892;151.134;2022-10-16T15:09:11;20.70;81.40
38277;DHT22;24080;-33.892;151.134;2022-10-16T15:11:40;20.80;81.50
38277;DHT22;24080;-33.892;151.134;2022-10-16T15:14:12;20.70;81.50
38277;DHT22;24080;-33.892;151.134;2022-10-16T15:16:41;20.70;81.60
38277;DHT22;24080;-33.892;151.134;2022-10-16T15:19:10;20.70;81.70
38277;DHT22;24080;-33.892;151.134;2022-10-16T15:21:38;20.80;81.80
38277;DHT22;24080;-33.892;151.134;2022-10-16T15:24:11;20.70;81.90
38277;DHT22;24080;-33.892;151.134;2022-10-16T15:26:40;20.70;82.20
38277;DHT22;24080;-33.892;151.134;2022-10-16T15:29:08;20.80;82.40
38277;DHT22;24080;-33.892;151.134;2022-10-16T15:31:36;20.70;82.60
38277;DHT22;24080;-33.892;151.134;2022-10-16T15:34:04;20.70;82.70
38277;DHT22;24080;-33.892;151.134;2022-10-16T15:36:35;20.70;82.90
38277;DHT22;24080;-33.892;151.134;2022-10-16T15:39:12;20.70;83.00
38277;DHT22;24080;-33.892;151.134;2022-10-16T15:41:42;20.70;83.40
38277;DHT22;24080;-33.892;151.134;2022-10-16T15:44:11;20.70;83.90
38277;DHT22;24080;-33.892;151.134;2022-10-16T15:46:38;20.70;83.20
38277;DHT22;24080;-33.892;151.134;2022-10-16T15:49:07;20.70;83.30
38277;DHT22;24080;-33.892;151.134;2022-10-16T15:51:39;20.70;83.40
38277;DHT22;24080;-33.892;151.134;2022-10-16T15:54:08;20.70;83.30
38277;DHT22;24080;-33.892;151.134;2022-10-16T15:56:36;20.70;83.30
38277;DHT22;24080;-33.892;151.134;2022-10-16T15:59:05;20.70;83.40
38277;DHT22;24080;-33.892;151.134;2022-10-16T16:01:35;20.60;84.20
38277;DHT22;24080;-33.892;151.134;2022-10-16T16:04:04;20.60;83.70
38277;DHT22;24080;-33.892;151.134;2022-10-16T16:06:32;20.60;83.80
38277;DHT22;24080;-33.892;151.134;2022-10-16T16:09:00;20.60;83.80
38277;DHT22;24080;-33.892;151.134;2022-10-16T16:11:28;20.60;84.40
38277;DHT22;24080;-33.892;151.134;2022-10-16T16:13:59;20.60;83.90
38277;DHT22;24080;-33.892;151.134;2022-10-16T16:16:27;20.60;83.80
38277;DHT22;24080;-33.892;151.134;2022-10-16T16:18:56;20.60;83.80
38277;DHT22;24080;-33.892;151.134;2022-10-16T16:21:23;20.60;83.90
38277;DHT22;24080;-33.892;151.134;2022-10-16T16:23:52;20.50;84.00
38277;DHT22;24080;-33.892;151.134;2022-10-16T16:26:25;20.50;84.10
38277;DHT22;24080;-33.892;151.134;2022-10-16T16:28:57;20.50;84.10
38277;DHT22;24080;-33.892;151.134;2022-10-16T16:31:26;20.50;84.10
38277;DHT22;24080;-33.892;151.134;2022-10-16T16:33:56;20.50;84.00
38277;DHT22;24080;-33.892;151.134;2022-10-16T16:36:25;20.50;83.80
38277;DHT22;24080;-33.892;151.134;2022-10-16T16:38:54;20.50;83.60
38277;DHT22;24080;-33.892;151.134;2022-10-16T16:41:25;20.40;83.30
38277;DHT22;24080;-33.892;151.134;2022-10-16T16:43:55;20.40;83.20
38277;DHT22;24080;-33.892;151.134;2022-10-16T16:46:23;20.40;83.00
38277;DHT22;24080;-33.892;151.134;2022-10-16T16:48:52;20.40;82.50
38277;DHT22;24080;-33.892;151.134;2022-10-16T16:51:23;20.40;82.70
38277;DHT22;24080;-33.892;151.134;2022-10-16T16:53:53;20.40;82.70
38277;DHT22;24080;-33.892;151.134;2022-10-16T16:56:23;20.40;82.60
38277;DHT22;24080;-33.892;151.134;2022-10-16T16:58:53;20.40;82.70
38277;DHT22;24080;-33.892;151.134;2022-10-16T17:01:25;20.40;82.70
38277;DHT22;24080;-33.892;151.134;2022-10-16T17:03:54;20.40;82.70
38277;DHT22;24080;-33.892;151.134;2022-10-16T17:06:28;20.40;82.80
38277;DHT22;24080;-33.892;151.134;2022-10-16T17:09:01;20.40;82.80
38277;DHT22;24080;-33.892;151.134;2022-10-16T17:11:31;20.40;82.70
38277;DHT22;24080;-33.892;151.134;2022-10-16T17:14:00;20.40;82.90
38277;DHT22;24080;-33.892;151.134;2022-10-16T17:16:32;20.40;82.80
38277;DHT22;24080;-33.892;151.134;2022-10-16T17:19:02;20.40;82.90